X  Sluiten METAR luchtvaart weer gegevens      EBBR Brussels Airport
Temperatuur
15°C Temperatuur
13°C Dauwpunt
88% Vochtigheid



Wind
8 KM/U
5 MPH
2 M/S
4 KTS



310°
NW
Huidig weer

Helder Helder
Luchtdruk 1014.92 (hPa) - 29.97 (inHg)
Zicht 6.2 (mijl) - 10 (km)
Vliegveld
Vliegveld code EBBR

Locatie : Brussels Airport
Afstand: 14 (km)

Metar:
EBBR 142220Z 31004KT CAVOK 15/13 Q1015 NOSIG

Tijd: 07-15-2020 00:20 CEST